Time;durP1;ratioP1;P1;durP2;ratioP2;P2;SDS_P1;SDS_P2;PMS_P1;PMS_P2;Temp;Humidity;BMP_temperature;BMP_pressure;BME280_temperature;BME280_humidity;BME280_pressure;Samples;Min_cycle;Max_cycle;Signal;HPM_P1;HPM_P2
2022/08/02 00:01:53;;;;;;;5.28;3.72;;;;;;;17.59;100.00;97366.63;1694399;85;21433;-82
2022/08/02 00:04:22;;;;;;;4.05;3.60;;;;;;;17.58;100.00;97399.97;1658534;86;21551;-81
2022/08/02 00:06:48;;;;;;;5.10;3.60;;;;;;;17.58;100.00;97427.28;1658519;86;21047;-83
2022/08/02 00:09:15;;;;;;;5.10;3.50;;;;;;;17.60;100.00;97428.34;1658706;86;21046;-82
2022/08/02 00:11:42;;;;;;;6.12;3.90;;;;;;;17.62;100.00;97429.72;1658730;86;21063;-81
2022/08/02 00:14:09;;;;;;;7.28;4.05;;;;;;;17.65;100.00;97431.05;1705909;83;21028;-82
2022/08/02 00:16:36;;;;;;;5.50;3.87;;;;;;;17.68;100.00;97425.59;1761533;80;21083;-81
2022/08/02 00:19:03;;;;;;;9.30;4.40;;;;;;;17.70;100.00;97387.31;1787534;80;21047;-80
2022/08/02 00:21:29;;;;;;;5.75;4.20;;;;;;;17.72;100.00;97384.30;1787317;80;20999;-82
2022/08/02 00:23:56;;;;;;;4.78;4.00;;;;;;;17.73;100.00;97446.88;1786491;80;21052;-82
2022/08/02 00:26:25;;;;;;;5.67;4.50;;;;;;;17.74;100.00;97457.25;1786795;80;21510;-81
2022/08/02 00:28:51;;;;;;;9.13;6.12;;;;;;;17.74;100.00;97447.16;1786728;80;21015;-82
2022/08/02 00:31:18;;;;;;;10.70;7.85;;;;;;;17.75;100.00;97424.73;1786624;80;20988;-81
2022/08/02 00:33:45;;;;;;;11.88;8.20;;;;;;;17.74;100.00;97385.67;1786701;80;21077;-82
2022/08/02 00:36:11;;;;;;;12.23;8.25;;;;;;;17.73;100.00;97348.50;1786217;80;20972;-82
2022/08/02 00:38:38;;;;;;;13.68;7.20;;;;;;;17.70;100.00;97316.27;1784126;80;21032;-82
2022/08/02 00:41:12;;;;;;;5.87;5.17;;;;;;;17.70;100.00;97290.86;1784214;80;21024;-82
2022/08/02 00:43:39;;;;;;;5.10;4.03;;;;;;;17.67;100.00;97260.84;1784195;80;21054;-82
2022/08/02 00:46:05;;;;;;;5.17;3.80;;;;;;;17.67;100.00;97234.05;1784278;80;21064;-81
2022/08/02 00:48:32;;;;;;;5.67;3.95;;;;;;;17.67;100.00;97228.05;1784062;80;21020;-82
2022/08/02 00:50:59;;;;;;;5.28;3.95;;;;;;;17.68;100.00;97222.02;1783975;80;21545;-82
2022/08/02 00:53:26;;;;;;;4.30;3.90;;;;;;;17.66;100.00;97214.11;1783932;80;21040;-82
2022/08/02 00:55:52;;;;;;;5.03;3.80;;;;;;;17.66;100.00;97219.58;1784311;80;21093;-82
2022/08/02 00:58:19;;;;;;;5.15;3.80;;;;;;;17.68;100.00;97247.98;1797238;79;21007;-82
2022/08/02 01:00:47;;;;;;;5.22;4.03;;;;;;;17.66;100.00;97283.78;1816945;79;21050;-82
2022/08/02 01:03:14;;;;;;;5.90;4.20;;;;;;;17.65;100.00;97324.49;1816705;79;21504;-83
2022/08/02 01:05:40;;;;;;;5.03;4.08;;;;;;;17.67;100.00;97376.12;1817102;79;20992;-84
2022/08/02 01:08:07;;;;;;;5.42;4.08;;;;;;;17.69;100.00;97401.25;1817129;79;21031;-83
2022/08/02 01:10:35;;;;;;;6.87;4.60;;;;;;;17.70;100.00;97409.17;1817033;79;21054;-83
2022/08/02 01:13:01;;;;;;;6.85;4.10;;;;;;;17.69;100.00;97407.55;1817032;79;21057;-82
2022/08/02 01:15:30;;;;;;;5.58;4.10;;;;;;;17.71;100.00;97408.09;1816938;79;21042;-82
2022/08/02 01:18:25;;;;;;;6.10;4.70;;;;;;;17.71;100.00;97388.95;1817132;79;20990;-83
2022/08/02 01:21:24;;;;;;;9.48;6.20;;;;;;;17.73;100.00;97369.55;1817131;79;21030;-82
2022/08/02 01:24:20;;;;;;;12.10;7.58;;;;;;;17.73;100.00;97352.59;1749754;82;21019;-82
2022/08/02 01:27:12;;;;;;;11.65;8.53;;;;;;;17.73;100.00;97360.80;1753212;82;20992;-82
2022/08/02 01:29:42;;;;;;;14.28;9.03;;;;;;;17.72;100.00;97363.80;1753810;82;21091;-82
2022/08/02 01:32:18;;;;;;;13.22;9.35;;;;;;;17.72;100.00;97369.27;1753945;82;21058;-82
2022/08/02 01:35:02;;;;;;;13.28;9.30;;;;;;;17.69;100.00;97367.94;1753978;82;21004;-82
2022/08/02 01:37:37;;;;;;;13.80;9.65;;;;;;;17.66;100.00;97367.12;1655353;85;21055;-81
2022/08/02 01:40:13;;;;;;;14.47;10.43;;;;;;;17.65;100.00;97349.09;1648462;87;21596;-81
2022/08/02 01:42:45;;;;;;;15.35;10.18;;;;;;;17.66;100.00;97335.70;1616995;89;21128;-81
2022/08/02 01:45:12;;;;;;;14.50;9.78;;;;;;;17.67;100.00;97331.88;1616933;89;21031;-82
2022/08/02 01:47:39;;;;;;;14.68;10.18;;;;;;;17.66;100.00;97339.80;1630502;88;21566;-82
2022/08/02 01:50:07;;;;;;;15.13;10.30;;;;;;;17.62;100.00;97357.87;1611768;89;21139;-82
2022/08/02 01:52:37;;;;;;;16.30;8.80;;;;;;;17.60;100.00;97361.41;1636886;88;21569;-81
2022/08/02 01:55:15;;;;;;;12.95;7.83;;;;;;;17.58;100.00;97341.75;1637048;88;21072;-82
2022/08/02 01:57:58;;;;;;;12.35;7.83;;;;;;;17.58;100.00;97328.93;1586153;89;21514;-82
2022/08/02 02:00:29;;;;;;;13.77;8.43;;;;;;;17.56;100.00;97311.98;1626945;88;21043;-82
2022/08/02 02:02:57;;;;;;;9.48;7.65;;;;;;;17.55;100.00;97304.90;1629235;88;21100;-82
2022/08/02 02:05:27;;;;;;;9.70;6.95;;;;;;;17.52;100.00;97298.62;1629360;88;21075;-82
2022/08/02 02:07:58;;;;;;;10.48;6.90;;;;;;;17.50;100.00;97291.27;1629401;88;21083;-80
2022/08/02 02:10:29;;;;;;;11.57;7.10;;;;;;;17.51;100.00;97285.25;1629556;88;21011;-81
2022/08/02 02:13:01;;;;;;;9.08;6.75;;;;;;;17.52;100.00;97286.34;1630579;83;21531;-81
2022/08/02 02:15:30;;;;;;;10.15;6.97;;;;;;;17.51;100.00;97280.63;1719504;83;21162;-80
2022/08/02 02:17:56;;;;;;;13.85;8.70;;;;;;;17.48;100.00;97291.30;1720019;83;21044;-79
2022/08/02 02:20:23;;;;;;;15.03;10.53;;;;;;;17.44;100.00;97290.49;1719800;83;21123;-81
2022/08/02 02:22:50;;;;;;;11.12;7.85;;;;;;;17.43;100.00;97295.67;1719631;83;21024;-81
2022/08/02 02:25:20;;;;;;;11.38;8.10;;;;;;;17.44;100.00;97302.78;1719536;83;21035;-81
2022/08/02 02:28:01;;;;;;;12.58;9.15;;;;;;;17.45;100.00;97322.16;1719189;83;21040;-81
2022/08/02 02:30:28;;;;;;;12.70;8.85;;;;;;;17.44;100.00;97328.73;1719274;83;21095;-81
2022/08/02 02:32:56;;;;;;;14.00;9.28;;;;;;;17.48;100.00;97350.03;1695724;83;21059;-81
2022/08/02 02:35:23;;;;;;;12.58;8.78;;;;;;;17.48;100.00;97357.67;1719476;83;21493;-82
2022/08/02 02:37:51;;;;;;;12.50;8.25;;;;;;;17.46;100.00;97347.02;1724955;83;20999;-82
2022/08/02 02:40:18;;;;;;;12.10;8.68;;;;;;;17.46;100.00;97333.92;1725830;83;21133;-81
2022/08/02 02:42:45;;;;;;;12.75;8.20;;;;;;;17.45;100.00;97337.17;1725671;83;21014;-82
2022/08/02 02:45:12;;;;;;;12.58;8.45;;;;;;;17.44;100.00;97370.23;1725655;83;21061;-80
2022/08/02 02:47:38;;;;;;;12.47;8.53;;;;;;;17.41;100.00;97400.30;1725710;83;21050;-82
2022/08/02 02:50:06;;;;;;;14.05;8.80;;;;;;;17.41;100.00;97418.06;1725615;83;21085;-82
2022/08/02 02:52:33;;;;;;;13.43;8.53;;;;;;;17.43;100.00;97425.42;1725430;83;21058;-82
2022/08/02 02:55:00;;;;;;;12.53;8.23;;;;;;;17.48;100.00;97410.13;1748848;82;21042;-82
2022/08/02 02:57:27;;;;;;;13.30;8.43;;;;;;;17.52;100.00;97377.05;1755560;81;21037;-82
2022/08/02 02:59:54;;;;;;;12.78;9.00;;;;;;;17.54;100.00;97357.89;1755669;82;21022;-81
2022/08/02 03:02:20;;;;;;;9.80;7.25;;;;;;;17.57;100.00;97357.89;1755678;82;20991;-81
2022/08/02 03:04:47;;;;;;;8.03;6.40;;;;;;;17.60;100.00;97362.77;1755596;82;21488;-82
2022/08/02 03:07:13;;;;;;;8.15;5.92;;;;;;;17.62;100.00;97369.61;1755694;82;21484;-81
2022/08/02 03:09:41;;;;;;;7.55;5.58;;;;;;;17.64;100.00;97369.33;1774229;80;21149;-81
2022/08/02 03:12:09;;;;;;;7.90;5.55;;;;;;;17.66;100.00;97371.22;1792429;80;20999;-81
2022/08/02 03:14:42;;;;;;;9.68;5.42;;;;;;;17.71;100.00;97382.69;1792311;80;21027;-81
2022/08/02 03:17:09;;;;;;;7.03;5.40;;;;;;;17.75;100.00;97383.19;1792631;80;21019;-82
2022/08/02 03:19:36;;;;;;;5.83;4.92;;;;;;;17.79;100.00;97375.23;1792694;80;20999;-82
2022/08/02 03:22:02;;;;;;;6.12;5.28;;;;;;;17.79;100.00;97370.58;1792310;80;21027;-83
2022/08/02 03:24:29;;;;;;;7.00;5.30;;;;;;;17.80;100.00;97352.28;1792580;80;21046;-82
2022/08/02 03:26:56;;;;;;;7.58;5.28;;;;;;;17.80;100.00;97350.92;1792244;80;20999;-82
2022/08/02 03:29:23;;;;;;;6.37;5.28;;;;;;;17.79;100.00;97350.08;1792188;80;21019;-81
2022/08/02 03:31:50;;;;;;;6.78;5.10;;;;;;;17.78;100.00;97350.39;1791904;79;21031;-81
2022/08/02 03:34:16;;;;;;;7.50;5.12;;;;;;;17.77;100.00;97335.89;1792321;80;21492;-81
2022/08/02 03:36:43;;;;;;;6.67;5.72;;;;;;;17.80;100.00;97326.32;1798631;79;20983;-80
2022/08/02 03:39:10;;;;;;;9.65;7.50;;;;;;;17.80;100.00;97318.13;1766446;79;21042;-81
2022/08/02 03:41:37;;;;;;;11.48;8.73;;;;;;;17.78;100.00;97327.97;1808597;79;20995;-82
2022/08/02 03:44:07;;;;;;;14.18;10.03;;;;;;;17.78;100.00;97325.80;1806067;79;21035;-83
2022/08/02 03:46:38;;;;;;;9.55;7.50;;;;;;;17.77;100.00;97318.13;1808435;79;21031;-82
2022/08/02 03:49:03;;;;;;;10.28;6.87;;;;;;;17.78;100.00;97306.11;1805699;79;21014;-82
2022/08/02 03:51:30;;;;;;;8.33;5.47;;;;;;;17.78;100.00;97299.83;1810668;79;21051;-81
2022/08/02 03:53:56;;;;;;;6.17;5.33;;;;;;;17.78;100.00;97296.54;1811355;79;21070;-82
2022/08/02 03:56:23;;;;;;;6.17;5.35;;;;;;;17.77;100.00;97297.63;1811691;79;20984;-82
2022/08/02 03:58:50;;;;;;;8.05;5.62;;;;;;;17.79;100.00;97296.78;1791358;79;21020;-81
2022/08/02 04:01:17;;;;;;;6.87;5.25;;;;;;;17.83;100.00;97289.67;1788473;80;21503;-82
2022/08/02 04:03:43;;;;;;;7.28;5.55;;;;;;;17.84;100.00;97291.28;1788687;80;21479;-82
2022/08/02 04:06:10;;;;;;;7.42;5.33;;;;;;;17.87;100.00;97289.14;1788715;80;21497;-81
2022/08/02 04:08:37;;;;;;;6.97;5.40;;;;;;;17.89;100.00;97291.03;1788244;80;21502;-81
2022/08/02 04:13:49;;;;;;;7.25;5.33;;;;;;;17.97;100.00;97282.20;1788740;80;20969;-81
2022/08/02 04:16:22;;;;;;;6.47;5.20;;;;;;;18.00;100.00;97279.70;1788153;80;21035;-80
2022/08/02 04:18:54;;;;;;;7.33;5.17;;;;;;;18.03;100.00;97275.04;1726449;83;21033;-81
2022/08/02 04:21:22;;;;;;;8.68;5.75;;;;;;;18.08;100.00;97267.36;1727254;83;20998;-82
2022/08/02 04:23:49;;;;;;;6.05;5.30;;;;;;;18.15;100.00;97250.59;1726965;83;21026;-82
2022/08/02 04:26:16;;;;;;;6.22;5.03;;;;;;;18.18;100.00;97261.80;1727044;83;21487;-81
2022/08/02 04:28:45;;;;;;;6.75;4.95;;;;;;;18.22;100.00;97218.28;1726888;82;21535;-81
2022/08/02 04:31:11;;;;;;;6.90;5.00;;;;;;;18.24;100.00;97213.33;1727298;83;21013;-82
2022/08/02 04:33:39;;;;;;;7.67;5.47;;;;;;;18.27;100.00;97199.61;1726954;83;21097;-82
2022/08/02 04:36:06;;;;;;;7.42;5.58;;;;;;;18.30;100.00;97191.64;1726697;82;21045;-82
2022/08/02 04:38:33;;;;;;;6.83;5.37;;;;;;;18.40;100.00;97185.25;1727244;83;20993;-82
2022/08/02 04:41:00;;;;;;;7.50;5.45;;;;;;;18.48;100.00;97175.58;1726964;83;21041;-82
2022/08/02 04:43:27;;;;;;;6.90;5.10;;;;;;;18.53;100.00;97176.32;1726794;83;21081;-81
2022/08/02 04:45:54;;;;;;;7.50;5.22;;;;;;;18.58;100.00;97178.19;1727313;83;21021;-82
2022/08/02 04:48:20;;;;;;;7.05;4.95;;;;;;;18.65;100.00;97171.00;1727123;83;21448;-82
2022/08/02 04:50:47;;;;;;;6.05;4.95;;;;;;;18.77;100.00;97175.48;1726954;83;21013;-82
2022/08/02 04:53:14;;;;;;;7.30;4.80;;;;;;;18.91;100.00;97168.73;1727140;83;21029;-82
2022/08/02 04:55:41;;;;;;;7.30;4.90;;;;;;;19.09;100.00;97160.29;1727115;83;20954;-81
2022/08/02 04:58:08;;;;;;;6.15;5.08;;;;;;;19.29;100.00;97159.16;1733837;82;21006;-84
2022/08/02 05:00:35;;;;;;;6.20;4.72;;;;;;;19.48;100.00;97147.61;1732142;82;21046;-83
2022/08/02 05:03:01;;;;;;;6.92;5.00;;;;;;;19.65;100.00;97141.55;1731955;83;21061;-84
2022/08/02 05:05:28;;;;;;;6.42;4.70;;;;;;;19.80;100.00;97131.48;1731737;83;21089;-84
2022/08/02 05:07:55;;;;;;;5.55;4.60;;;;;;;19.95;100.00;97123.52;1745878;82;20974;-82
2022/08/02 05:10:22;;;;;;;4.90;3.98;;;;;;;20.13;100.00;97119.05;1758993;82;21037;-82
2022/08/02 05:12:49;;;;;;;10.93;7.35;;;;;;;20.29;100.00;97115.71;1759746;82;21025;-83
2022/08/02 05:15:17;;;;;;;25.20;21.60;;;;;;;20.46;100.00;97117.02;1788265;79;21023;-83
2022/08/02 05:17:45;;;;;;;84.92;76.80;;;;;;;20.56;100.00;97113.25;1824520;79;20992;-83
2022/08/02 05:20:15;;;;;;;16.27;11.15;;;;;;;20.72;100.00;97109.64;1822340;79;21032;-80
2022/08/02 05:22:42;;;;;;;6.03;4.72;;;;;;;20.93;100.00;97109.42;1822219;79;20980;-79
2022/08/02 05:25:09;;;;;;;8.30;5.97;;;;;;;21.15;100.00;97117.43;1819771;79;21545;-78
2022/08/02 05:27:36;;;;;;;12.00;6.67;;;;;;;21.26;100.00;97138.03;1820555;79;20956;-79
2022/08/02 05:30:04;;;;;;;7.50;5.42;;;;;;;21.35;100.00;97193.06;1820193;79;20985;-78
2022/08/02 05:32:31;;;;;;;6.92;5.17;;;;;;;21.48;100.00;97252.72;1820815;79;20968;-82
2022/08/02 05:35:00;;;;;;;212.80;192.95;;;;;;;21.64;100.00;97283.42;1823127;79;21087;-81
2022/08/02 05:37:28;;;;;;;19.98;15.83;;;;;;;21.79;100.00;97334.48;1817571;79;21002;-84
2022/08/02 05:39:54;;;;;;;12.68;7.90;;;;;;;21.96;100.00;97380.02;1815416;79;20994;-82
2022/08/02 05:42:23;;;;;;;7.55;4.97;;;;;;;22.12;100.00;97429.20;1815308;79;21491;-85
2022/08/02 05:44:50;;;;;;;5.00;4.50;;;;;;;22.26;100.00;97478.14;1814197;79;21010;-82
2022/08/02 05:47:17;;;;;;;49.38;44.25;;;;;;;22.38;100.00;97534.03;1814132;79;21026;-82
2022/08/02 05:49:43;;;;;;;11.30;7.78;;;;;;;22.53;100.00;97586.02;1817311;78;20976;-80
2022/08/02 05:52:16;;;;;;;17.87;11.85;;;;;;;22.71;100.00;97622.80;1765231;79;21031;-83
2022/08/02 05:54:56;;;;;;;;;;;;;;;22.87;100.00;97678.94;1820005;79;20953;-79
2022/08/02 05:57:59;;;;;;;20.15;14.75;;;;;;;23.10;100.00;97706.82;1807550;79;20100;-84
2022/08/02 06:00:26;;;;;;;11.60;7.33;;;;;;;23.35;100.00;97747.91;1814453;79;21022;-82
2022/08/02 06:03:21;;;;;;;12.90;7.78;;;;;;;23.56;100.00;97814.45;1818089;79;20985;-83
2022/08/02 06:05:59;;;;;;;103.25;92.35;;;;;;;23.60;100.00;97928.00;1817778;79;20987;-80
2022/08/02 06:08:42;;;;;;;13.60;8.95;;;;;;;23.72;100.00;98009.42;1809818;79;20984;-78
2022/08/02 06:11:21;;;;;;;7.83;5.30;;;;;;;23.82;100.00;98064.44;1817861;79;21000;-80
2022/08/02 06:13:48;;;;;;;7.92;6.10;;;;;;;23.76;100.00;98153.36;1810522;79;21493;-80
2022/08/02 06:16:16;;;;;;;10.72;6.00;;;;;;;23.80;100.00;98174.27;1819486;79;21016;-79
2022/08/02 06:18:43;;;;;;;9.95;6.47;;;;;;;23.94;100.00;98173.77;1820692;79;21046;-79
2022/08/02 06:21:09;;;;;;;12.05;6.60;;;;;;;24.08;100.00;98197.22;1820798;79;20964;-80
2022/08/02 06:23:40;;;;;;;11.45;6.72;;;;;;;24.17;100.00;98222.18;1821572;79;21031;-79
2022/08/02 06:26:09;;;;;;;12.58;6.80;;;;;;;24.28;100.00;98231.12;1821126;79;21027;-81
2022/08/02 06:28:37;;;;;;;12.93;6.95;;;;;;;24.45;100.00;98225.78;1818088;79;21019;-82
2022/08/02 06:31:06;;;;;;;12.18;7.10;;;;;;;24.69;100.00;98213.18;1819799;79;21015;-79
2022/08/02 06:33:34;;;;;;;10.13;6.45;;;;;;;24.83;100.00;98243.00;1791377;79;21015;-80
2022/08/02 06:36:23;;;;;;;12.78;6.78;;;;;;;24.92;100.00;98274.88;1767508;80;20968;-81
2022/08/02 06:39:05;;;;;;;15.15;7.30;;;;;;;25.07;100.00;98292.27;1736223;80;21114;-81
2022/08/02 06:41:42;;;;;;;13.35;6.87;;;;;;;25.19;100.00;98321.59;1791644;80;21105;-79
2022/08/02 06:44:17;;;;;;;17.05;8.65;;;;;;;25.34;100.00;98325.45;1790536;80;21087;-79
2022/08/02 06:46:44;;;;;;;16.32;10.13;;;;;;;25.52;100.00;98336.11;1807192;79;21016;-80
2022/08/02 06:49:10;;;;;;;11.20;7.20;;;;;;;25.66;100.00;98354.07;1821299;79;21015;-80
2022/08/02 06:51:37;;;;;;;14.03;7.85;;;;;;;25.86;100.00;98351.95;1819690;79;21028;-82
2022/08/02 06:54:04;;;;;;;12.13;7.17;;;;;;;26.04;100.00;98361.25;1821645;79;20984;-82
2022/08/02 06:56:32;;;;;;;11.60;6.97;;;;;;;26.19;100.00;98366.42;1820296;79;20996;-82
2022/08/02 06:58:59;;;;;;;11.73;6.90;;;;;;;26.36;100.00;98372.63;1822564;79;21323;-83
2022/08/02 07:01:27;;;;;;;12.78;7.17;;;;;;;26.51;100.00;98394.99;1822613;79;20992;-84
2022/08/02 07:04:02;;;;;;;10.25;6.45;;;;;;;26.70;100.00;98403.09;1821827;79;20984;-83
2022/08/02 07:06:31;;;;;;;11.00;6.28;;;;;;;26.90;100.00;98394.83;1818665;79;21663;-85
2022/08/02 07:09:01;;;;;;;9.28;6.33;;;;;;;27.14;100.00;98413.83;1793502;79;21038;-82
2022/08/02 07:11:33;;;;;;;14.75;7.05;;;;;;;27.33;100.00;98432.23;1779607;81;21027;-82
2022/08/02 07:14:00;;;;;;;12.18;6.78;;;;;;;27.38;100.00;98493.95;1720296;82;21005;-81
2022/08/02 07:16:27;;;;;;;10.25;5.95;;;;;;;27.40;100.00;98496.41;1732977;83;21045;-79
2022/08/02 07:18:56;;;;;;;24.92;22.17;;;;;;;27.50;100.00;98515.55;1816183;79;21003;-80
2022/08/02 07:21:23;;;;;;;19.77;13.20;;;;;;;27.59;100.00;98515.59;1816575;79;20997;-79
2022/08/02 07:23:50;;;;;;;12.82;8.23;;;;;;;27.75;100.00;98508.45;1818402;79;21004;-80
2022/08/02 07:26:17;;;;;;;18.48;8.45;;;;;;;27.96;100.00;98521.75;1815287;79;21466;-80
2022/08/02 07:28:44;;;;;;;10.93;7.12;;;;;;;27.94;100.00;98573.48;1817268;79;21044;-83
2022/08/02 07:31:11;;;;;;;12.20;6.95;;;;;;;27.73;100.00;98596.81;1817692;79;21035;-84
2022/08/02 07:33:38;;;;;;;10.58;6.30;;;;;;;27.55;100.00;98593.14;1817729;79;21028;-84
2022/08/02 07:36:07;;;;;;;24.05;19.05;;;;;;;27.37;100.00;98613.59;1810231;79;20969;-81
2022/08/02 07:38:35;;;;;;;13.22;9.30;;;;;;;27.21;100.00;98637.52;1816502;79;21052;-80
2022/08/02 07:41:01;;;;;;;12.85;7.85;;;;;;;27.32;100.00;98604.84;1813912;79;20989;-82
2022/08/02 07:43:28;;;;;;;21.02;14.73;;;;;;;27.53;100.00;98592.62;1817120;79;21007;-80
2022/08/02 07:45:55;;;;;;;14.95;10.18;;;;;;;27.78;100.00;98580.02;1818329;79;21026;-80
2022/08/02 07:48:22;;;;;;;14.85;8.93;;;;;;;28.10;100.00;98584.97;1816862;79;21521;-82
2022/08/02 07:50:49;;;;;;;11.97;7.37;;;;;;;28.44;100.00;98588.95;1779952;79;21027;-81
2022/08/02 07:53:18;;;;;;;9.85;6.50;;;;;;;28.67;100.00;98630.53;1817011;79;21482;-82
2022/08/02 07:55:44;;;;;;;10.32;6.37;;;;;;;28.81;100.00;98640.12;1817081;79;21024;-82
2022/08/02 07:58:12;;;;;;;10.25;6.12;;;;;;;29.02;100.00;98664.78;1817151;79;20976;-83
2022/08/02 08:00:41;;;;;;;21.02;15.58;;;;;;;29.27;100.00;98672.91;1817533;79;21000;-81
2022/08/02 08:03:08;;;;;;;11.63;8.48;;;;;;;29.38;100.00;98728.25;1818031;79;20992;-83
2022/08/02 08:05:35;;;;;;;9.73;6.30;;;;;;;29.48;100.00;98723.16;1818821;79;21501;-80
2022/08/02 08:08:02;;;;;;;7.00;5.50;;;;;;;29.53;100.00;98734.69;1818855;79;20988;-81
2022/08/02 08:10:29;;;;;;;6.80;5.20;;;;;;;29.50;100.00;98755.67;1753979;82;21107;-82
2022/08/02 08:12:56;;;;;;;16.27;12.35;;;;;;;29.32;100.00;98782.70;1797656;79;20985;-79
2022/08/02 08:15:23;;;;;;;31.07;27.58;;;;;;;28.97;100.00;98806.83;1818374;79;20929;-81
2022/08/02 08:17:50;;;;;;;11.55;8.40;;;;;;;28.68;100.00;98808.19;1819031;79;21469;-82
2022/08/02 08:20:17;;;;;;;8.70;5.70;;;;;;;28.69;100.00;98785.39;1820196;79;21040;-82
2022/08/02 08:22:47;;;;;;;6.90;4.92;;;;;;;28.97;100.00;98767.30;1819606;79;21059;-83
2022/08/02 08:25:14;;;;;;;7.95;4.92;;;;;;;29.35;100.00;98777.03;1818622;79;21469;-80
2022/08/02 08:27:48;;;;;;;10.40;7.30;;;;;;;29.56;100.00;98800.88;1818817;79;20969;-79
2022/08/02 08:30:15;;;;;;;8.93;5.95;;;;;;;29.51;100.00;98817.73;1819435;79;20983;-81
2022/08/02 08:32:42;;;;;;;8.40;6.35;;;;;;;29.24;100.00;98844.73;1819580;79;21001;-81
2022/08/02 08:35:09;;;;;;;9.00;5.40;;;;;;;28.91;100.00;98856.22;1819928;79;20956;-82
2022/08/02 08:37:37;;;;;;;9.88;5.92;;;;;;;28.64;100.00;98860.62;1779817;79;21036;-82
2022/08/02 08:40:08;;;;;;;9.70;6.22;;;;;;;28.46;100.00;98850.77;1768439;81;20976;-81
2022/08/02 08:42:37;;;;;;;9.65;5.47;;;;;;;28.40;100.00;98836.73;1767373;81;20984;-80
2022/08/02 08:45:06;;;;;;;7.65;4.87;;;;;;;28.31;100.00;98849.77;1797711;79;20979;-84
2022/08/02 08:47:38;;;;;;;7.50;5.55;;;;;;;28.16;100.00;98866.28;1817257;79;21764;-83
2022/08/02 08:50:18;;;;;;;8.43;5.75;;;;;;;28.09;100.00;98870.06;1817917;79;21003;-80
2022/08/02 08:52:55;;;;;;;10.88;6.62;;;;;;;27.99;100.00;98869.19;1705831;83;21061;-80
2022/08/02 08:55:25;;;;;;;10.38;6.65;;;;;;;27.98;100.00;98845.89;1699976;83;21078;-84
2022/08/02 08:57:52;;;;;;;10.35;5.85;;;;;;;28.02;100.00;98843.53;1692792;84;21021;-83
2022/08/02 09:00:20;;;;;;;11.30;5.80;;;;;;;28.09;100.00;98854.21;1684500;85;21049;-83
2022/08/02 09:02:46;;;;;;;8.38;5.03;;;;;;;28.13;100.00;98863.55;1684721;85;21033;-82
2022/08/02 09:05:14;;;;;;;6.22;4.87;;;;;;;28.12;100.00;98886.09;1683319;85;21550;-83
2022/08/02 09:07:43;;;;;;;5.62;4.50;;;;;;;28.08;100.00;98892.03;1683428;85;22179;-79
2022/08/02 09:10:39;;;;;;;6.05;4.42;;;;;;;28.07;100.00;98897.35;1683137;85;21538;-74
2022/08/02 09:13:22;;;;;;;7.17;4.60;;;;;;;28.05;100.00;98902.38;1684061;85;21506;-74
2022/08/02 09:15:59;;;;;;;;;;;;;;;27.99;100.00;98903.08;1686522;85;22065;-76
2022/08/02 09:21:07;;;;;;;7.78;5.10;;;;;;;27.78;100.00;98922.13;1675014;86;21079;-72
2022/08/02 09:23:42;;;;;;;6.08;4.97;;;;;;;27.70;100.00;98919.55;1674238;86;21121;-73
2022/08/02 09:26:11;;;;;;;9.48;5.97;;;;;;;27.66;100.00;98929.64;1674268;86;21077;-72
2022/08/02 09:28:41;;;;;;;6.65;5.15;;;;;;;27.67;100.00;98930.45;1674599;86;21136;-72
2022/08/02 09:31:21;;;;;;;11.28;6.22;;;;;;;27.57;100.00;98969.80;1678172;85;21511;-73
2022/08/02 09:33:57;;;;;;;12.50;5.75;;;;;;;27.39;100.00;98967.95;1676401;86;21143;-73
2022/08/02 09:36:24;;;;;;;9.38;5.50;;;;;;;27.26;100.00;98959.28;1657381;86;21106;-72
2022/08/02 09:39:01;;;;;;;13.35;7.12;;;;;;;27.13;100.00;98942.08;1667505;85;21056;-72
2022/08/02 09:41:30;;;;;;;9.98;6.35;;;;;;;27.01;100.00;98952.28;1667593;86;21076;-74
2022/08/02 09:43:58;;;;;;;11.40;6.45;;;;;;;26.92;100.00;98945.00;1666610;86;21932;-72
2022/08/02 09:46:29;;;;;;;23.70;16.30;;;;;;;26.90;100.00;98932.81;1667033;86;21056;-70
2022/08/02 09:48:59;;;;;;;13.65;7.25;;;;;;;26.87;100.00;98931.47;1679455;84;21037;-72
2022/08/02 09:51:35;;;;;;;10.50;7.33;;;;;;;27.00;100.00;98913.21;1674345;86;21082;-73
2022/08/02 09:54:08;;;;;;;10.98;6.50;;;;;;;27.37;100.00;98913.32;1619413;88;21538;-70
2022/08/02 09:56:55;;;;;;;10.63;7.28;;;;;;;27.84;100.00;98907.83;1620420;88;21161;-71
2022/08/02 09:59:23;;;;;;;11.90;7.05;;;;;;;28.35;100.00;98904.99;1590325;90;21136;-72
2022/08/02 10:01:51;;;;;;;8.30;6.47;;;;;;;28.89;100.00;98936.39;1590385;90;21173;-72
2022/08/02 10:04:23;;;;;;;10.38;6.60;;;;;;;29.14;100.00;98967.45;1590508;90;21115;-74
2022/08/02 10:06:51;;;;;;;;;;;;;;;29.26;100.00;98982.19;1594452;88;21054;-73
2022/08/02 10:09:18;;;;;;;10.78;6.50;;;;;;;29.45;100.00;98976.38;1594466;89;20111;-72
2022/08/02 10:11:45;;;;;;;8.20;6.33;;;;;;;29.64;100.00;98994.19;1600020;90;21298;-71
2022/08/02 10:14:12;;;;;;;146.13;132.20;;;;;;;29.73;100.00;99018.73;1600217;88;21138;-72
2022/08/02 10:16:42;;;;;;;26.62;21.05;;;;;;;29.60;100.00;99037.18;1599467;90;21595;-73
2022/08/02 10:19:09;;;;;;;21.25;13.80;;;;;;;29.41;100.00;99038.84;1598998;90;21671;-72
2022/08/02 10:22:03;;;;;;;13.35;8.73;;;;;;;29.34;100.00;99032.34;1597740;90;21655;-72
2022/08/02 10:24:33;;;;;;;13.13;7.58;;;;;;;29.36;100.00;99032.02;1590581;88;21132;-73
2022/08/02 10:26:59;;;;;;;21.70;17.77;;;;;;;29.65;100.00;99025.89;1622330;88;21586;-74
2022/08/02 10:29:34;;;;;;;9.70;6.87;;;;;;;30.06;100.00;99022.50;1622930;88;21129;-76
2022/08/02 10:32:14;;;;;;;14.95;9.00;;;;;;;30.52;100.00;99041.18;1580060;90;21105;-73
2022/08/02 10:34:58;;;;;;;25.65;16.07;;;;;;;30.91;100.00;99052.70;1569586;90;21107;-72
2022/08/02 10:37:31;;;;;;;12.00;7.33;;;;;;;31.11;100.00;99081.11;1565110;91;21074;-73
2022/08/02 10:39:59;;;;;;;9.98;6.08;;;;;;;30.91;100.00;99118.88;1569755;91;21121;-74
2022/08/02 10:42:46;;;;;;;10.58;5.95;;;;;;;30.52;100.00;99145.19;1563407;91;21547;-73
2022/08/02 10:45:18;;;;;;;12.63;6.28;;;;;;;30.05;100.00;99150.47;1556216;91;21040;-72
2022/08/02 10:48:10;;;;;;;8.88;6.10;;;;;;;29.73;100.00;99127.37;1560178;90;21039;-72
2022/08/02 10:50:51;;;;;;;9.38;5.70;;;;;;;29.59;100.00;99119.66;1607900;88;21152;-72
2022/08/02 10:53:26;;;;;;;11.57;6.85;;;;;;;29.45;100.00;99138.69;1642326;86;21076;-73
2022/08/02 10:56:01;;;;;;;10.75;6.00;;;;;;;29.29;100.00;99120.75;1575721;91;21096;-71
2022/08/02 10:58:32;;;;;;;7.78;5.95;;;;;;;29.25;100.00;99108.03;1561245;90;21057;-70
2022/08/02 11:01:27;;;;;;;8.58;6.40;;;;;;;29.24;100.00;99113.91;1555382;92;21122;-71
2022/08/02 11:03:59;;;;;;;18.20;12.05;;;;;;;29.25;100.00;99110.81;1555188;92;21130;-73
2022/08/02 11:06:26;;;;;;;10.20;7.45;;;;;;;29.24;100.00;99111.13;1555348;92;21047;-76
2022/08/02 11:09:28;;;;;;;7.87;6.17;;;;;;;29.30;100.00;99095.92;1554201;92;21122;-73
2022/08/02 11:12:10;;;;;;;8.83;5.97;;;;;;;29.45;100.00;99103.88;1554315;92;21098;-71
2022/08/02 11:14:39;;;;;;;9.33;5.75;;;;;;;29.53;100.00;99145.44;1500973;96;21087;-73
2022/08/02 11:17:17;;;;;;;8.88;6.12;;;;;;;29.43;100.00;99122.03;1500423;96;21219;-72
2022/08/02 11:20:14;;;;;;;10.88;6.95;;;;;;;29.45;100.00;99127.55;1501085;96;21134;-72
2022/08/02 11:22:42;;;;;;;10.48;6.50;;;;;;;29.41;100.00;99118.20;1500964;96;21577;-72
2022/08/02 11:25:30;;;;;;;9.90;6.55;;;;;;;29.34;100.00;99141.47;1501366;96;21086;-74
2022/08/02 11:28:01;;;;;;;12.23;7.08;;;;;;;29.04;100.00;99145.81;1507460;92;21166;-72
2022/08/02 11:30:28;;;;;;;10.00;6.87;;;;;;;28.66;100.00;99126.12;1559579;91;21069;-72
2022/08/02 11:32:56;;;;;;;9.48;6.55;;;;;;;28.36;100.00;99116.48;1581606;90;21074;-72
2022/08/02 11:35:35;;;;;;;12.18;6.78;;;;;;;28.22;100.00;99095.66;1587532;88;21528;-73
2022/08/02 11:38:18;;;;;;;8.70;6.40;;;;;;;28.15;100.00;99086.34;1572519;90;21074;-73
2022/08/02 11:40:46;;;;;;;13.13;7.67;;;;;;;28.09;100.00;99102.89;1509621;95;21125;-75
2022/08/02 11:43:20;;;;;;;11.45;6.62;;;;;;;28.10;100.00;99087.88;1506400;95;21183;-74